Southwest Oregon Regional Airport North Bend US
ICAO: KOTH
IATA: OTH
Category: Medium
Scheduled Services: Yes

Elevation: 17 ft
TransAlt. 18000 ft.

Airport Communications:
AWOS 3:135.075
SEATTLE CNTR:121.4
AIR:34.5
MC MINNVILLE RDO:122.4
UNICOM:122.7

KOTH Zoom In..

If you have problems with the map follow the link
https://www.worldairports.se/pages/airport.php?
ICAO=KOTH

Runways:

(A) RW 04 length 5980 ft width 150 ft
ILS 108.50 / hdg 43

(B) RW 13 length 4470 ft width 150 ft
---- / hdg 132

(C) RW 22 length 5980 ft width 150 ft
---- / hdg 223

(D) RW 31 length 4470 ft width 150 ft
---- / hdg 312

Location; KOTH
Day. 23 / Time. 18.56 Zulu
* Altimeter: 30.01
* Temperature: 12° c. 53.6°f.
* Wind from: 180° Speed 04 kn.
Dewpoint: 10° c.
Visibility: 4 Statute Miles.
Clouds: Scattered 2800 ft.
Clouds: Broken 3300 ft.
Clouds: Overcast 4000 ft.
Conditions: Rain.Conditions: Mist.

KOTH 231856Z 18004KT 4SM RA BR SCT028 BKN033 OVC040 12/10 A3001 RMK AO2 RAB03 SLP163 T01170100


Wind From 180°
Speed 04 kn.

 
 
jpsmedia.com for Web Design worldairports.se 2018   terms of use